sensor_id;sensor_type;location;lat;lon;timestamp;temperature;humidity
36594;DHT22;22603;47.900;8.146;2023-04-16T00:02:29;4.60;99.90
36594;DHT22;22603;47.900;8.146;2023-04-16T00:05:17;4.60;99.90
36594;DHT22;22603;47.900;8.146;2023-04-16T00:08:04;4.60;99.90
36594;DHT22;22603;47.900;8.146;2023-04-16T00:10:52;4.60;99.90
36594;DHT22;22603;47.900;8.146;2023-04-16T00:13:39;4.60;99.90
36594;DHT22;22603;47.900;8.146;2023-04-16T00:16:26;4.60;99.90
36594;DHT22;22603;47.900;8.146;2023-04-16T00:19:14;4.60;99.90
36594;DHT22;22603;47.900;8.146;2023-04-16T00:22:02;4.60;99.90
36594;DHT22;22603;47.900;8.146;2023-04-16T00:24:49;4.60;99.90
36594;DHT22;22603;47.900;8.146;2023-04-16T00:27:36;4.60;99.90
36594;DHT22;22603;47.900;8.146;2023-04-16T00:30:23;4.60;99.90
36594;DHT22;22603;47.900;8.146;2023-04-16T00:33:10;4.60;99.90
36594;DHT22;22603;47.900;8.146;2023-04-16T00:35:57;4.60;99.90
36594;DHT22;22603;47.900;8.146;2023-04-16T00:38:45;4.60;99.90
36594;DHT22;22603;47.900;8.146;2023-04-16T00:41:32;4.60;99.90
36594;DHT22;22603;47.900;8.146;2023-04-16T00:44:19;4.60;99.90
36594;DHT22;22603;47.900;8.146;2023-04-16T00:47:06;4.60;99.90
36594;DHT22;22603;47.900;8.146;2023-04-16T00:49:53;4.60;99.90
36594;DHT22;22603;47.900;8.146;2023-04-16T00:52:40;4.60;99.90
36594;DHT22;22603;47.900;8.146;2023-04-16T00:55:29;4.60;99.90
36594;DHT22;22603;47.900;8.146;2023-04-16T00:58:17;4.60;99.90
36594;DHT22;22603;47.900;8.146;2023-04-16T01:01:04;4.60;99.90
36594;DHT22;22603;47.900;8.146;2023-04-16T01:03:51;4.60;99.90
36594;DHT22;22603;47.900;8.146;2023-04-16T01:06:38;4.60;99.90
36594;DHT22;22603;47.900;8.146;2023-04-16T01:09:25;4.60;99.90
36594;DHT22;22603;47.900;8.146;2023-04-16T01:12:13;4.60;99.90
36594;DHT22;22603;47.900;8.146;2023-04-16T01:15:00;4.60;99.90
36594;DHT22;22603;47.900;8.146;2023-04-16T01:17:47;4.60;99.90
36594;DHT22;22603;47.900;8.146;2023-04-16T01:20:36;4.60;99.90
36594;DHT22;22603;47.900;8.146;2023-04-16T01:23:22;4.60;99.90
36594;DHT22;22603;47.900;8.146;2023-04-16T01:26:09;4.60;99.90
36594;DHT22;22603;47.900;8.146;2023-04-16T01:28:56;4.60;99.90
36594;DHT22;22603;47.900;8.146;2023-04-16T01:31:43;4.60;99.90
36594;DHT22;22603;47.900;8.146;2023-04-16T01:34:31;4.70;99.90
36594;DHT22;22603;47.900;8.146;2023-04-16T01:37:19;4.70;99.90
36594;DHT22;22603;47.900;8.146;2023-04-16T01:40:07;4.60;99.90
36594;DHT22;22603;47.900;8.146;2023-04-16T01:42:54;4.60;99.90
36594;DHT22;22603;47.900;8.146;2023-04-16T01:45:41;4.60;99.90
36594;DHT22;22603;47.900;8.146;2023-04-16T01:48:29;4.60;99.90
36594;DHT22;22603;47.900;8.146;2023-04-16T01:51:15;4.60;99.90
36594;DHT22;22603;47.900;8.146;2023-04-16T01:54:04;4.60;99.90
36594;DHT22;22603;47.900;8.146;2023-04-16T01:56:50;4.60;99.90
36594;DHT22;22603;47.900;8.146;2023-04-16T01:59:38;4.60;99.90
36594;DHT22;22603;47.900;8.146;2023-04-16T02:02:25;4.60;99.90
36594;DHT22;22603;47.900;8.146;2023-04-16T02:05:14;4.60;99.90
36594;DHT22;22603;47.900;8.146;2023-04-16T02:08:01;4.60;99.90
36594;DHT22;22603;47.900;8.146;2023-04-16T02:10:49;4.60;99.90
36594;DHT22;22603;47.900;8.146;2023-04-16T02:13:37;4.60;99.90
36594;DHT22;22603;47.900;8.146;2023-04-16T02:16:23;4.60;99.90
36594;DHT22;22603;47.900;8.146;2023-04-16T02:19:11;4.60;99.90
36594;DHT22;22603;47.900;8.146;2023-04-16T02:21:58;4.60;99.90
36594;DHT22;22603;47.900;8.146;2023-04-16T02:24:46;4.60;99.90
36594;DHT22;22603;47.900;8.146;2023-04-16T02:27:35;4.60;99.90
36594;DHT22;22603;47.900;8.146;2023-04-16T02:30:23;4.50;99.90
36594;DHT22;22603;47.900;8.146;2023-04-16T02:33:11;4.60;99.90
36594;DHT22;22603;47.900;8.146;2023-04-16T02:35:59;4.70;99.90
36594;DHT22;22603;47.900;8.146;2023-04-16T02:38:49;4.70;99.90
36594;DHT22;22603;47.900;8.146;2023-04-16T02:41:36;4.60;99.90
36594;DHT22;22603;47.900;8.146;2023-04-16T02:44:25;4.50;99.90
36594;DHT22;22603;47.900;8.146;2023-04-16T02:47:12;4.50;99.90
36594;DHT22;22603;47.900;8.146;2023-04-16T02:49:59;4.50;99.90
36594;DHT22;22603;47.900;8.146;2023-04-16T02:52:46;4.50;99.90
36594;DHT22;22603;47.900;8.146;2023-04-16T02:55:33;4.50;99.90
36594;DHT22;22603;47.900;8.146;2023-04-16T02:58:20;4.50;99.90
36594;DHT22;22603;47.900;8.146;2023-04-16T03:01:09;4.50;99.90
36594;DHT22;22603;47.900;8.146;2023-04-16T03:03:56;4.50;99.90
36594;DHT22;22603;47.900;8.146;2023-04-16T03:06:46;4.50;99.90
36594;DHT22;22603;47.900;8.146;2023-04-16T03:09:33;4.50;99.90
36594;DHT22;22603;47.900;8.146;2023-04-16T03:12:20;4.50;99.90
36594;DHT22;22603;47.900;8.146;2023-04-16T03:15:07;4.50;99.90
36594;DHT22;22603;47.900;8.146;2023-04-16T03:17:57;4.50;99.90
36594;DHT22;22603;47.900;8.146;2023-04-16T03:20:44;4.50;99.90
36594;DHT22;22603;47.900;8.146;2023-04-16T03:23:31;4.50;99.90
36594;DHT22;22603;47.900;8.146;2023-04-16T03:26:18;4.50;99.90
36594;DHT22;22603;47.900;8.146;2023-04-16T03:29:05;4.50;99.90
36594;DHT22;22603;47.900;8.146;2023-04-16T03:31:52;4.50;99.90
36594;DHT22;22603;47.900;8.146;2023-04-16T03:34:41;4.50;99.90
36594;DHT22;22603;47.900;8.146;2023-04-16T03:37:28;4.50;99.90
36594;DHT22;22603;47.900;8.146;2023-04-16T03:40:15;4.40;99.90
36594;DHT22;22603;47.900;8.146;2023-04-16T03:43:02;4.40;99.90
36594;DHT22;22603;47.900;8.146;2023-04-16T03:45:52;4.50;99.90
36594;DHT22;22603;47.900;8.146;2023-04-16T03:48:41;4.40;99.90
36594;DHT22;22603;47.900;8.146;2023-04-16T03:51:30;4.50;99.90
36594;DHT22;22603;47.900;8.146;2023-04-16T03:54:17;4.50;99.90
36594;DHT22;22603;47.900;8.146;2023-04-16T03:57:06;4.50;99.90
36594;DHT22;22603;47.900;8.146;2023-04-16T03:59:54;4.50;99.90
36594;DHT22;22603;47.900;8.146;2023-04-16T04:02:41;4.40;99.90
36594;DHT22;22603;47.900;8.146;2023-04-16T04:05:28;4.50;99.90
36594;DHT22;22603;47.900;8.146;2023-04-16T04:08:17;4.50;99.90
36594;DHT22;22603;47.900;8.146;2023-04-16T04:11:04;4.60;99.90
36594;DHT22;22603;47.900;8.146;2023-04-16T04:13:51;4.50;99.90
36594;DHT22;22603;47.900;8.146;2023-04-16T04:16:39;4.50;99.90
36594;DHT22;22603;47.900;8.146;2023-04-16T04:19:26;4.50;99.90
36594;DHT22;22603;47.900;8.146;2023-04-16T04:22:13;4.50;99.90
36594;DHT22;22603;47.900;8.146;2023-04-16T04:25:01;4.60;99.90
36594;DHT22;22603;47.900;8.146;2023-04-16T04:27:48;4.50;99.90
36594;DHT22;22603;47.900;8.146;2023-04-16T04:30:35;4.50;99.90
36594;DHT22;22603;47.900;8.146;2023-04-16T04:33:22;4.50;99.90
36594;DHT22;22603;47.900;8.146;2023-04-16T04:36:09;4.50;99.90
36594;DHT22;22603;47.900;8.146;2023-04-16T04:38:56;4.50;99.90
36594;DHT22;22603;47.900;8.146;2023-04-16T04:41:44;4.50;99.90
36594;DHT22;22603;47.900;8.146;2023-04-16T04:44:32;4.50;99.90
36594;DHT22;22603;47.900;8.146;2023-04-16T04:47:19;4.50;99.90
36594;DHT22;22603;47.900;8.146;2023-04-16T04:50:07;4.50;99.90
36594;DHT22;22603;47.900;8.146;2023-04-16T04:52:55;4.50;99.90
36594;DHT22;22603;47.900;8.146;2023-04-16T04:55:42;4.50;99.90
36594;DHT22;22603;47.900;8.146;2023-04-16T04:58:31;4.60;99.90
36594;DHT22;22603;47.900;8.146;2023-04-16T05:01:18;4.60;99.90
36594;DHT22;22603;47.900;8.146;2023-04-16T05:04:06;4.60;99.90
36594;DHT22;22603;47.900;8.146;2023-04-16T05:06:53;4.50;99.90
36594;DHT22;22603;47.900;8.146;2023-04-16T05:09:41;4.50;99.90
36594;DHT22;22603;47.900;8.146;2023-04-16T05:12:28;4.50;99.90
36594;DHT22;22603;47.900;8.146;2023-04-16T05:15:19;4.50;99.90
36594;DHT22;22603;47.900;8.146;2023-04-16T05:18:08;4.50;99.90
36594;DHT22;22603;47.900;8.146;2023-04-16T05:20:55;4.50;99.90
36594;DHT22;22603;47.900;8.146;2023-04-16T05:23:43;4.50;99.90
36594;DHT22;22603;47.900;8.146;2023-04-16T05:26:34;4.50;99.90
36594;DHT22;22603;47.900;8.146;2023-04-16T05:29:22;4.40;99.90
36594;DHT22;22603;47.900;8.146;2023-04-16T05:32:13;4.40;99.90
36594;DHT22;22603;47.900;8.146;2023-04-16T05:35:02;4.40;99.90
36594;DHT22;22603;47.900;8.146;2023-04-16T05:37:50;4.40;99.90
36594;DHT22;22603;47.900;8.146;2023-04-16T05:40:39;4.50;99.90
36594;DHT22;22603;47.900;8.146;2023-04-16T05:43:26;4.50;99.90
36594;DHT22;22603;47.900;8.146;2023-04-16T05:46:13;4.50;99.90
36594;DHT22;22603;47.900;8.146;2023-04-16T05:49:02;4.50;99.90
36594;DHT22;22603;47.900;8.146;2023-04-16T05:51:50;4.50;99.90
36594;DHT22;22603;47.900;8.146;2023-04-16T05:54:37;4.50;99.90
36594;DHT22;22603;47.900;8.146;2023-04-16T05:57:24;4.60;99.90
36594;DHT22;22603;47.900;8.146;2023-04-16T06:00:12;4.50;99.90
36594;DHT22;22603;47.900;8.146;2023-04-16T06:03:01;4.60;99.90
36594;DHT22;22603;47.900;8.146;2023-04-16T06:05:52;4.60;99.90
36594;DHT22;22603;47.900;8.146;2023-04-16T06:08:40;4.60;99.90
36594;DHT22;22603;47.900;8.146;2023-04-16T06:11:28;4.60;99.90
36594;DHT22;22603;47.900;8.146;2023-04-16T06:14:20;4.60;99.90
36594;DHT22;22603;47.900;8.146;2023-04-16T06:17:07;4.60;99.90
36594;DHT22;22603;47.900;8.146;2023-04-16T06:19:55;4.60;99.90
36594;DHT22;22603;47.900;8.146;2023-04-16T06:22:46;4.60;99.90
36594;DHT22;22603;47.900;8.146;2023-04-16T06:25:35;4.60;99.90
36594;DHT22;22603;47.900;8.146;2023-04-16T06:28:23;4.60;99.90
36594;DHT22;22603;47.900;8.146;2023-04-16T06:31:10;4.70;99.90
36594;DHT22;22603;47.900;8.146;2023-04-16T06:33:57;4.70;99.90
36594;DHT22;22603;47.900;8.146;2023-04-16T06:36:46;4.70;99.90
36594;DHT22;22603;47.900;8.146;2023-04-16T06:39:36;4.70;99.90
36594;DHT22;22603;47.900;8.146;2023-04-16T06:42:23;4.70;99.90
36594;DHT22;22603;47.900;8.146;2023-04-16T06:45:12;4.80;99.90
36594;DHT22;22603;47.900;8.146;2023-04-16T06:48:00;4.80;99.90
36594;DHT22;22603;47.900;8.146;2023-04-16T06:50:50;4.80;99.90
36594;DHT22;22603;47.900;8.146;2023-04-16T06:53:37;4.80;99.90
36594;DHT22;22603;47.900;8.146;2023-04-16T06:56:27;4.80;99.90
36594;DHT22;22603;47.900;8.146;2023-04-16T06:59:17;4.90;99.90
36594;DHT22;22603;47.900;8.146;2023-04-16T07:02:04;4.90;99.90
36594;DHT22;22603;47.900;8.146;2023-04-16T07:04:53;4.90;99.90
36594;DHT22;22603;47.900;8.146;2023-04-16T07:07:40;5.00;99.90
36594;DHT22;22603;47.900;8.146;2023-04-16T07:10:27;4.90;99.90
36594;DHT22;22603;47.900;8.146;2023-04-16T07:13:18;4.90;99.90
36594;DHT22;22603;47.900;8.146;2023-04-16T07:16:05;4.90;99.90
36594;DHT22;22603;47.900;8.146;2023-04-16T07:18:55;4.90;99.90
36594;DHT22;22603;47.900;8.146;2023-04-16T07:21:43;4.90;99.90
36594;DHT22;22603;47.900;8.146;2023-04-16T07:24:32;4.90;99.90
36594;DHT22;22603;47.900;8.146;2023-04-16T07:27:20;5.00;99.90
36594;DHT22;22603;47.900;8.146;2023-04-16T07:30:10;5.00;99.90
36594;DHT22;22603;47.900;8.146;2023-04-16T07:32:57;5.00;99.90
36594;DHT22;22603;47.900;8.146;2023-04-16T07:35:45;5.00;99.90
36594;DHT22;22603;47.900;8.146;2023-04-16T07:38:34;5.10;99.90
36594;DHT22;22603;47.900;8.146;2023-04-16T07:41:23;5.10;99.90
36594;DHT22;22603;47.900;8.146;2023-04-16T07:44:10;5.20;99.90
36594;DHT22;22603;47.900;8.146;2023-04-16T07:46:59;5.20;99.90
36594;DHT22;22603;47.900;8.146;2023-04-16T07:49:50;5.20;99.90
36594;DHT22;22603;47.900;8.146;2023-04-16T07:52:37;5.30;99.90
36594;DHT22;22603;47.900;8.146;2023-04-16T07:55:26;5.30;99.90
36594;DHT22;22603;47.900;8.146;2023-04-16T07:58:13;5.40;99.90
36594;DHT22;22603;47.900;8.146;2023-04-16T08:01:01;5.50;99.90
36594;DHT22;22603;47.900;8.146;2023-04-16T08:03:53;5.50;99.90
36594;DHT22;22603;47.900;8.146;2023-04-16T08:06:42;5.50;99.90
36594;DHT22;22603;47.900;8.146;2023-04-16T08:09:29;5.50;99.90
36594;DHT22;22603;47.900;8.146;2023-04-16T08:12:15;5.60;99.90
36594;DHT22;22603;47.900;8.146;2023-04-16T08:15:03;5.70;99.90
36594;DHT22;22603;47.900;8.146;2023-04-16T08:17:50;5.70;99.90
36594;DHT22;22603;47.900;8.146;2023-04-16T08:20:38;5.80;99.90
36594;DHT22;22603;47.900;8.146;2023-04-16T08:23:26;5.80;99.90
36594;DHT22;22603;47.900;8.146;2023-04-16T08:26:13;5.80;99.90
36594;DHT22;22603;47.900;8.146;2023-04-16T08:29:02;5.80;99.90
36594;DHT22;22603;47.900;8.146;2023-04-16T08:31:49;5.90;99.90
36594;DHT22;22603;47.900;8.146;2023-04-16T08:34:36;5.80;99.90
36594;DHT22;22603;47.900;8.146;2023-04-16T08:37:25;5.90;99.90
36594;DHT22;22603;47.900;8.146;2023-04-16T08:40:12;5.90;99.90
36594;DHT22;22603;47.900;8.146;2023-04-16T08:43:00;5.90;99.90
36594;DHT22;22603;47.900;8.146;2023-04-16T08:45:48;5.90;99.90
36594;DHT22;22603;47.900;8.146;2023-04-16T08:48:40;5.90;99.90
36594;DHT22;22603;47.900;8.146;2023-04-16T08:51:29;5.90;99.90
36594;DHT22;22603;47.900;8.146;2023-04-16T08:54:30;5.90;99.90
36594;DHT22;22603;47.900;8.146;2023-04-16T08:57:18;5.70;99.90
36594;DHT22;22603;47.900;8.146;2023-04-16T09:00:10;5.70;99.90
36594;DHT22;22603;47.900;8.146;2023-04-16T09:02:58;5.80;99.90
36594;DHT22;22603;47.900;8.146;2023-04-16T09:05:46;5.70;99.90
36594;DHT22;22603;47.900;8.146;2023-04-16T09:08:33;5.70;99.90
36594;DHT22;22603;47.900;8.146;2023-04-16T09:11:24;5.80;99.90
36594;DHT22;22603;47.900;8.146;2023-04-16T09:14:12;5.80;99.90
36594;DHT22;22603;47.900;8.146;2023-04-16T09:17:00;5.80;99.90
36594;DHT22;22603;47.900;8.146;2023-04-16T09:19:48;5.90;99.90
36594;DHT22;22603;47.900;8.146;2023-04-16T09:22:35;5.90;99.90
36594;DHT22;22603;47.900;8.146;2023-04-16T09:25:22;5.80;99.90
36594;DHT22;22603;47.900;8.146;2023-04-16T09:28:12;5.90;99.90
36594;DHT22;22603;47.900;8.146;2023-04-16T09:31:07;5.90;99.90
36594;DHT22;22603;47.900;8.146;2023-04-16T09:34:02;6.00;99.90
36594;DHT22;22603;47.900;8.146;2023-04-16T09:36:49;6.00;99.90
36594;DHT22;22603;47.900;8.146;2023-04-16T09:39:36;6.00;99.90
36594;DHT22;22603;47.900;8.146;2023-04-16T09:42:25;6.00;99.90
36594;DHT22;22603;47.900;8.146;2023-04-16T09:45:14;6.00;99.90
36594;DHT22;22603;47.900;8.146;2023-04-16T09:48:02;5.90;99.90
36594;DHT22;22603;47.900;8.146;2023-04-16T09:50:50;5.90;99.90
36594;DHT22;22603;47.900;8.146;2023-04-16T09:53:37;5.80;99.90
36594;DHT22;22603;47.900;8.146;2023-04-16T09:56:24;5.90;99.90
36594;DHT22;22603;47.900;8.146;2023-04-16T09:59:16;5.80;99.90
36594;DHT22;22603;47.900;8.146;2023-04-16T10:02:07;5.80;99.90
36594;DHT22;22603;47.900;8.146;2023-04-16T10:05:01;5.80;99.90
36594;DHT22;22603;47.900;8.146;2023-04-16T10:07:48;5.70;99.90
36594;DHT22;22603;47.900;8.146;2023-04-16T10:10:35;5.80;99.90
36594;DHT22;22603;47.900;8.146;2023-04-16T10:13:23;5.80;99.90
36594;DHT22;22603;47.900;8.146;2023-04-16T10:16:12;5.70;99.90
36594;DHT22;22603;47.900;8.146;2023-04-16T10:19:01;5.70;99.90
36594;DHT22;22603;47.900;8.146;2023-04-16T10:21:48;5.70;99.90
36594;DHT22;22603;47.900;8.146;2023-04-16T10:24:35;5.70;99.90
36594;DHT22;22603;47.900;8.146;2023-04-16T10:27:23;5.70;99.90
36594;DHT22;22603;47.900;8.146;2023-04-16T10:30:12;5.70;99.90
36594;DHT22;22603;47.900;8.146;2023-04-16T10:33:03;5.70;99.90
36594;DHT22;22603;47.900;8.146;2023-04-16T10:35:52;5.70;99.90
36594;DHT22;22603;47.900;8.146;2023-04-16T10:38:56;5.70;99.90
36594;DHT22;22603;47.900;8.146;2023-04-16T10:41:44;5.70;99.90
36594;DHT22;22603;47.900;8.146;2023-04-16T10:44:31;5.70;99.90
36594;DHT22;22603;47.900;8.146;2023-04-16T10:47:19;5.70;99.90
36594;DHT22;22603;47.900;8.146;2023-04-16T10:50:15;5.80;99.90
36594;DHT22;22603;47.900;8.146;2023-04-16T10:53:21;5.70;99.90
36594;DHT22;22603;47.900;8.146;2023-04-16T10:56:10;5.70;99.90
36594;DHT22;22603;47.900;8.146;2023-04-16T10:58:57;5.70;99.90
36594;DHT22;22603;47.900;8.146;2023-04-16T11:01:46;5.60;99.90
36594;DHT22;22603;47.900;8.146;2023-04-16T11:04:35;5.60;99.90
36594;DHT22;22603;47.900;8.146;2023-04-16T11:07:32;5.60;99.90
36594;DHT22;22603;47.900;8.146;2023-04-16T11:10:20;5.70;99.90
36594;DHT22;22603;47.900;8.146;2023-04-16T11:13:07;5.70;99.90
36594;DHT22;22603;47.900;8.146;2023-04-16T11:15:58;5.80;99.90
36594;DHT22;22603;47.900;8.146;2023-04-16T11:18:45;5.80;99.90
36594;DHT22;22603;47.900;8.146;2023-04-16T11:21:36;5.90;99.90
36594;DHT22;22603;47.900;8.146;2023-04-16T11:24:23;6.00;99.90
36594;DHT22;22603;47.900;8.146;2023-04-16T11:27:13;6.20;99.90
36594;DHT22;22603;47.900;8.146;2023-04-16T11:30:02;6.20;99.90
36594;DHT22;22603;47.900;8.146;2023-04-16T11:32:49;6.30;99.90
36594;DHT22;22603;47.900;8.146;2023-04-16T11:35:36;6.30;99.90
36594;DHT22;22603;47.900;8.146;2023-04-16T11:38:32;6.30;99.90
36594;DHT22;22603;47.900;8.146;2023-04-16T11:41:20;6.40;99.90
36594;DHT22;22603;47.900;8.146;2023-04-16T11:44:18;6.30;99.90
36594;DHT22;22603;47.900;8.146;2023-04-16T11:47:05;6.40;99.90
36594;DHT22;22603;47.900;8.146;2023-04-16T11:49:52;6.30;99.90
36594;DHT22;22603;47.900;8.146;2023-04-16T11:52:39;6.20;99.90
36594;DHT22;22603;47.900;8.146;2023-04-16T11:55:26;6.20;99.90
36594;DHT22;22603;47.900;8.146;2023-04-16T11:58:13;6.20;99.90
36594;DHT22;22603;47.900;8.146;2023-04-16T12:01:03;6.30;99.90
36594;DHT22;22603;47.900;8.146;2023-04-16T12:04:00;6.30;99.90
36594;DHT22;22603;47.900;8.146;2023-04-16T12:07:07;6.30;99.90
36594;DHT22;22603;47.900;8.146;2023-04-16T12:10:05;6.30;99.90
36594;DHT22;22603;47.900;8.146;2023-04-16T12:12:52;6.10;99.90
36594;DHT22;22603;47.900;8.146;2023-04-16T12:15:43;6.10;99.90
36594;DHT22;22603;47.900;8.146;2023-04-16T12:18:32;6.00;99.90
36594;DHT22;22603;47.900;8.146;2023-04-16T12:21:19;6.10;99.90
36594;DHT22;22603;47.900;8.146;2023-04-16T12:24:07;6.00;99.90
36594;DHT22;22603;47.900;8.146;2023-04-16T12:26:54;6.00;99.90
36594;DHT22;22603;47.900;8.146;2023-04-16T12:29:42;6.10;99.90
36594;DHT22;22603;47.900;8.146;2023-04-16T12:32:29;6.00;99.90
36594;DHT22;22603;47.900;8.146;2023-04-16T12:35:30;6.10;99.90
36594;DHT22;22603;47.900;8.146;2023-04-16T12:38:18;6.10;99.90
36594;DHT22;22603;47.900;8.146;2023-04-16T12:41:08;6.00;99.90
36594;DHT22;22603;47.900;8.146;2023-04-16T12:44:02;6.10;99.90
36594;DHT22;22603;47.900;8.146;2023-04-16T12:46:51;6.10;99.90
36594;DHT22;22603;47.900;8.146;2023-04-16T12:49:38;6.10;99.90
36594;DHT22;22603;47.900;8.146;2023-04-16T12:52:26;6.00;99.90
36594;DHT22;22603;47.900;8.146;2023-04-16T12:55:14;5.90;99.90
36594;DHT22;22603;47.900;8.146;2023-04-16T12:58:00;5.90;99.90
36594;DHT22;22603;47.900;8.146;2023-04-16T13:00:47;5.70;99.90
36594;DHT22;22603;47.900;8.146;2023-04-16T13:03:34;5.80;99.90
36594;DHT22;22603;47.900;8.146;2023-04-16T13:06:21;5.80;99.90
36594;DHT22;22603;47.900;8.146;2023-04-16T13:09:10;5.70;99.90
36594;DHT22;22603;47.900;8.146;2023-04-16T13:11:57;5.80;99.90
36594;DHT22;22603;47.900;8.146;2023-04-16T13:14:44;5.80;99.90
36594;DHT22;22603;47.900;8.146;2023-04-16T13:17:31;5.90;99.90
36594;DHT22;22603;47.900;8.146;2023-04-16T13:20:18;5.80;99.90
36594;DHT22;22603;47.900;8.146;2023-04-16T13:23:08;5.80;99.90
36594;DHT22;22603;47.900;8.146;2023-04-16T13:25:57;5.90;99.90
36594;DHT22;22603;47.900;8.146;2023-04-16T13:28:44;5.90;99.90
36594;DHT22;22603;47.900;8.146;2023-04-16T13:31:31;5.90;99.90
36594;DHT22;22603;47.900;8.146;2023-04-16T13:34:17;5.90;99.90
36594;DHT22;22603;47.900;8.146;2023-04-16T13:37:05;5.80;99.90
36594;DHT22;22603;47.900;8.146;2023-04-16T13:39:52;5.90;99.90
36594;DHT22;22603;47.900;8.146;2023-04-16T13:42:40;5.90;99.90
36594;DHT22;22603;47.900;8.146;2023-04-16T13:45:27;5.80;99.90
36594;DHT22;22603;47.900;8.146;2023-04-16T13:48:14;5.80;99.90
36594;DHT22;22603;47.900;8.146;2023-04-16T13:51:02;5.80;99.90
36594;DHT22;22603;47.900;8.146;2023-04-16T13:53:49;5.80;99.90
36594;DHT22;22603;47.900;8.146;2023-04-16T13:56:36;5.70;99.90
36594;DHT22;22603;47.900;8.146;2023-04-16T13:59:25;5.70;99.90
36594;DHT22;22603;47.900;8.146;2023-04-16T14:02:12;5.70;99.90
36594;DHT22;22603;47.900;8.146;2023-04-16T14:04:59;5.80;99.90
36594;DHT22;22603;47.900;8.146;2023-04-16T14:07:46;5.70;99.90
36594;DHT22;22603;47.900;8.146;2023-04-16T14:10:32;5.80;99.90
36594;DHT22;22603;47.900;8.146;2023-04-16T14:13:20;5.80;99.90
36594;DHT22;22603;47.900;8.146;2023-04-16T14:16:08;5.90;99.90
36594;DHT22;22603;47.900;8.146;2023-04-16T14:18:55;5.90;99.90
36594;DHT22;22603;47.900;8.146;2023-04-16T14:21:42;6.00;99.90
36594;DHT22;22603;47.900;8.146;2023-04-16T14:24:29;5.90;99.90
36594;DHT22;22603;47.900;8.146;2023-04-16T14:27:16;5.90;99.90
36594;DHT22;22603;47.900;8.146;2023-04-16T14:30:03;5.90;99.90
36594;DHT22;22603;47.900;8.146;2023-04-16T14:32:52;5.90;99.90
36594;DHT22;22603;47.900;8.146;2023-04-16T14:35:40;5.90;99.90
36594;DHT22;22603;47.900;8.146;2023-04-16T14:38:27;5.80;99.90
36594;DHT22;22603;47.900;8.146;2023-04-16T14:41:14;5.80;99.90
36594;DHT22;22603;47.900;8.146;2023-04-16T14:44:01;5.80;99.90
36594;DHT22;22603;47.900;8.146;2023-04-16T14:46:48;5.70;99.90
36594;DHT22;22603;47.900;8.146;2023-04-16T14:49:37;5.70;99.90
36594;DHT22;22603;47.900;8.146;2023-04-16T14:52:24;5.70;99.90
36594;DHT22;22603;47.900;8.146;2023-04-16T14:55:12;5.70;99.90
36594;DHT22;22603;47.900;8.146;2023-04-16T14:57:58;5.80;99.90
36594;DHT22;22603;47.900;8.146;2023-04-16T15:00:45;5.80;99.90
36594;DHT22;22603;47.900;8.146;2023-04-16T15:03:32;5.80;99.90
36594;DHT22;22603;47.900;8.146;2023-04-16T15:06:21;5.90;99.90
36594;DHT22;22603;47.900;8.146;2023-04-16T15:09:08;6.00;99.90
36594;DHT22;22603;47.900;8.146;2023-04-16T15:11:55;6.00;99.90
36594;DHT22;22603;47.900;8.146;2023-04-16T15:14:44;6.00;99.90
36594;DHT22;22603;47.900;8.146;2023-04-16T15:17:31;6.00;99.90
36594;DHT22;22603;47.900;8.146;2023-04-16T15:20:18;6.00;99.90
36594;DHT22;22603;47.900;8.146;2023-04-16T15:23:06;5.90;99.90
36594;DHT22;22603;47.900;8.146;2023-04-16T15:25:53;5.90;99.90
36594;DHT22;22603;47.900;8.146;2023-04-16T15:28:40;5.90;99.90
36594;DHT22;22603;47.900;8.146;2023-04-16T15:31:26;5.90;99.90
36594;DHT22;22603;47.900;8.146;2023-04-16T15:34:13;5.90;99.90
36594;DHT22;22603;47.900;8.146;2023-04-16T15:37:00;5.90;99.90
36594;DHT22;22603;47.900;8.146;2023-04-16T15:39:49;5.90;99.90
36594;DHT22;22603;47.900;8.146;2023-04-16T15:42:36;6.00;99.90
36594;DHT22;22603;47.900;8.146;2023-04-16T15:45:23;6.00;99.90
36594;DHT22;22603;47.900;8.146;2023-04-16T15:48:10;6.00;99.90
36594;DHT22;22603;47.900;8.146;2023-04-16T15:50:57;5.90;99.90
36594;DHT22;22603;47.900;8.146;2023-04-16T15:53:44;5.80;99.90
36594;DHT22;22603;47.900;8.146;2023-04-16T15:56:33;5.80;99.90
36594;DHT22;22603;47.900;8.146;2023-04-16T15:59:20;5.80;99.90
36594;DHT22;22603;47.900;8.146;2023-04-16T16:02:06;5.80;99.90
36594;DHT22;22603;47.900;8.146;2023-04-16T16:04:53;5.90;99.90
36594;DHT22;22603;47.900;8.146;2023-04-16T16:07:41;5.90;99.90
36594;DHT22;22603;47.900;8.146;2023-04-16T16:10:28;5.90;99.90
36594;DHT22;22603;47.900;8.146;2023-04-16T16:13:16;5.80;99.90
36594;DHT22;22603;47.900;8.146;2023-04-16T16:16:03;5.80;99.90
36594;DHT22;22603;47.900;8.146;2023-04-16T16:18:51;5.80;99.90
36594;DHT22;22603;47.900;8.146;2023-04-16T16:21:38;5.80;99.90
36594;DHT22;22603;47.900;8.146;2023-04-16T16:24:25;5.70;99.90
36594;DHT22;22603;47.900;8.146;2023-04-16T16:27:12;5.70;99.90
36594;DHT22;22603;47.900;8.146;2023-04-16T16:30:00;5.70;99.90
36594;DHT22;22603;47.900;8.146;2023-04-16T16:32:49;5.70;99.90
36594;DHT22;22603;47.900;8.146;2023-04-16T16:35:36;5.70;99.90
36594;DHT22;22603;47.900;8.146;2023-04-16T16:38:22;5.70;99.90
36594;DHT22;22603;47.900;8.146;2023-04-16T16:41:10;5.70;99.90
36594;DHT22;22603;47.900;8.146;2023-04-16T16:43:57;5.70;99.90
36594;DHT22;22603;47.900;8.146;2023-04-16T16:46:46;5.70;99.90
36594;DHT22;22603;47.900;8.146;2023-04-16T16:49:33;5.70;99.90
36594;DHT22;22603;47.900;8.146;2023-04-16T16:52:21;5.70;99.90
36594;DHT22;22603;47.900;8.146;2023-04-16T16:55:09;5.80;99.90
36594;DHT22;22603;47.900;8.146;2023-04-16T16:57:56;5.80;99.90
36594;DHT22;22603;47.900;8.146;2023-04-16T17:00:44;5.70;99.90
36594;DHT22;22603;47.900;8.146;2023-04-16T17:03:32;5.80;99.90
36594;DHT22;22603;47.900;8.146;2023-04-16T17:06:20;5.80;99.90
36594;DHT22;22603;47.900;8.146;2023-04-16T17:09:07;5.70;99.90
36594;DHT22;22603;47.900;8.146;2023-04-16T17:11:54;5.70;99.90
36594;DHT22;22603;47.900;8.146;2023-04-16T17:14:41;5.80;99.90
36594;DHT22;22603;47.900;8.146;2023-04-16T17:17:28;5.80;99.90
36594;DHT22;22603;47.900;8.146;2023-04-16T17:20:17;5.80;99.90
36594;DHT22;22603;47.900;8.146;2023-04-16T17:23:04;5.70;99.90
36594;DHT22;22603;47.900;8.146;2023-04-16T17:25:51;5.70;99.90
36594;DHT22;22603;47.900;8.146;2023-04-16T17:28:38;5.80;99.90
36594;DHT22;22603;47.900;8.146;2023-04-16T17:31:25;5.80;99.90
36594;DHT22;22603;47.900;8.146;2023-04-16T17:34:12;5.80;99.90
36594;DHT22;22603;47.900;8.146;2023-04-16T17:37:01;5.90;99.90
36594;DHT22;22603;47.900;8.146;2023-04-16T17:39:48;5.90;99.90
36594;DHT22;22603;47.900;8.146;2023-04-16T17:42:35;5.80;99.90
36594;DHT22;22603;47.900;8.146;2023-04-16T17:45:22;5.80;99.90
36594;DHT22;22603;47.900;8.146;2023-04-16T17:48:09;5.80;99.90
36594;DHT22;22603;47.900;8.146;2023-04-16T17:50:56;5.70;99.90
36594;DHT22;22603;47.900;8.146;2023-04-16T17:53:44;5.70;99.90
36594;DHT22;22603;47.900;8.146;2023-04-16T17:56:31;5.70;99.90
36594;DHT22;22603;47.900;8.146;2023-04-16T17:59:18;5.70;99.90